Nash, North Dakota
Current Conditions -  °F | °C
As of 9:55 AM on Friday 28 Nov 2014 (Local Time) from KGAF Reporting Station
Haze Haze  
Wind Chill:   Ceiling: 1700
Heat Index: 12°   Visibility: 3mi
Dew Point:   Wind: 7mph
Humidity: 85%   Direction: 110°ESE
Pressure: 29.97"   Gusts: NA
Location:  48.4031°N, 97.4245°W
Report Text: KGAF 281555Z AUTO 11006KT 3SM BR OVC017 M11/M13 A2997 RMK AO2
Loading
Personal Weather Stations






























Interactive Weather Map New forecast layout! Learn more

10-Day Weather Forecast

Advertisements
Track Severe Weather on mobile